To NAV CANADA Home Page Login to a new session Search on AWWS site Feedback and Comments Disclaimer Vers la page française équivalente Tips FAQ What's new on the site To the Forecasts and Observations / NOTAM section To "File a Flight Plan" website Publications and other links Update of the User's profile FIC Telephone Numbers My Weather Data Folder Route Weather Data Regional Weather Data Local Weather Data To the Forecasts and Observations / NOTAM section
Request Generated 12/04/2016 at 22:24:06 UTC . Weather information available at that time is displayed.

METAR/TAF

PRINCE ALBERT (GLASS FIELD)/SK    

METAR CYPA 042200Z 20004KT 15SM FEW150 FEW250 M02/M07 A2955 RMK
AC1CI1 SLP033=
METAR CYPA 042100Z 00000KT 15SM FEW150 SCT250 M02/M07 A2955 RMK
AC2CI1 SLP033=
METAR CYPA 042000Z 00000KT 15SM FEW150 SCT250 M03/M07 A2956 RMK
AC2CI2 SLP035=

TAF CYPA 041838Z 0419/0507 24005KT P6SM FEW150 BKN250
BECMG 0502/0504 28005KT
RMK NXT FCST BY 050100Z=
Your time UTC time
Weather data provided by Environment Canada and NAV CANADA